Faust — SLKQ — position and weather

sailwx.info

Track history (hours):
 
Tides and Currents Weather Stations Pressure Air Temp Water Temp Dewpoint Dewpoint Depression Visibility Wind Speed Wind Dir Waves Ship Positions

Faust

Last reported at 2016-May-30 23:33 UTC. Time now 2016-May-31 00:14 UTC.
Position N 53°54' E 007°40'.

Length 227.8 m; beam 32.3 m; draft 9.5 m.

Type: Cargo ship. MMSI: 266260000.

Date/timePositionNaut miles runAvg speedWind from/ knotsBaromVisibWave heightAir tempDewpointWater temp
2016-May-30 23:33N 53°54' E 007°40'1010.2
2016-May-30 22:33N 53°54' E 007°23'1110.5
2016-May-30 21:33N 53°51' E 007°05'1212.3
2016-May-30 20:33N 53°49' E 006°45'1312.6
2016-May-30 19:33N 53°45' E 006°24'1211.6
2016-May-30 18:33N 53°42' E 006°06'1111.3
2016-May-30 17:33N 53°38' E 005°47'7 7.2
2016-May-30 16:33N 53°36' E 005°36'1110.5
2016-May-30 15:33N 53°33' E 005°19'1313.3
2016-May-30 14:34N 53°29' E 004°58'1312.9
2016-May-30 13:34N 53°22' E 004°40'1413.5
2016-May-30 12:31N 53°09' E 004°30'1313.5
2016-May-30 11:33N 52°58' E 004°18'1413.7
2016-May-30 10:33N 52°46' E 004°08'1313.5
2016-May-30 09:34N 52°36' E 003°52'1413.7
2016-May-30 08:33N 52°27' E 003°36'1413.9
2016-May-30 07:32N 52°16' E 003°21'1111.2
2016-May-30 06:33N 52°08' E 003°08'1411.9
2016-May-30 05:25N 51°58' E 002°53'1113.0
2016-May-30 04:33N 51°49' E 002°43'1111.5
2016-May-30 03:33N 51°41' E 002°30'1010.0
2016-May-30 02:33N 51°33' E 002°20'10 9.7
2016-May-30 01:33N 51°25' E 002°11'1010.0
2016-May-30 00:33N 51°16' E 002°05'10 9.8
2016-May-29 23:33N 51°10' E 001°53'10 9.9
2016-May-29 22:33N 51°03' E 001°41'1110.5
2016-May-29 21:33N 50°56' E 001°29'1211.5
2016-May-29 20:33N 50°45' E 001°23'1111.3
2016-May-29 19:33N 50°36' E 001°11'3711.9
2016-May-29 16:26N 50°23' E 000°17'1112.5
2016-May-29 15:33N 50°20' E 000°01'1313.2
2016-May-29 14:33N 50°16' W 000°19'1413.8
2016-May-29 13:33N 50°13' W 000°40'1313.1
2016-May-29 12:33N 50°09' W 001°00'1312.8
2016-May-29 11:33N 50°06' W 001°19'5112.7
2016-May-29 07:33N 49°53' W 002°35'1311.9
2016-May-29 06:26N 49°50' W 002°56'1112.2
2016-May-29 05:33N 49°48' W 003°12'1212.0
2016-May-29 04:33N 49°46' W 003°30'1612.2
2016-May-29 03:17N 49°46' W 003°55'2512.5
2016-May-29 01:17N 49°43' W 004°33'912.7
2016-May-29 00:32N 49°43' W 004°48'3013.4
2016-May-28 22:18N 49°40' W 005°33'1013.7
2016-May-28 21:33N 49°39' W 005°49'1413.6
2016-May-28 20:32N 49°38' W 006°11'2713.6
2016-May-28 18:33N 49°38' W 006°52'1414.1
2016-May-28 17:33N 49°39' W 007°14'1613.9
2016-May-28 16:23N 49°40' W 007°39'1113.7
2016-May-28 15:33N 49°40' W 007°57'1413.5
2016-May-28 14:33N 49°40' W 008°18'1413.6
2016-May-28 13:33N 49°40' W 008°39'  
2016-May-21 13:30N 38°39' W 071°23'1414.6
2016-May-21 12:33N 38°48' W 071°36'1514.9
2016-May-21 11:33N 38°58' W 071°50'1514.7
2016-May-21 10:33N 39°08' W 072°03'1515.0
2016-May-21 09:34N 39°19' W 072°18'1414.1
2016-May-21 08:33N 39°28' W 072°31'1313.2
2016-May-21 07:33N 39°37' W 072°44'1312.6
2016-May-21 06:33N 39°46' W 072°55'5 4.6
2016-May-21 05:31N 39°48' W 073°00'9 8.5
2016-May-21 04:28N 39°55' W 073°08'1618.0
2016-May-21 03:33N 40°06' W 073°24'1817.6
2016-May-21 02:33N 40°19' W 073°40'1413.5
2016-May-21 01:34N 40°28' W 073°53'1312.8
2016-May-21 00:33N 40°38' W 074°03'5 4.5
2016-May-20 23:33N 40°41' W 074°08'  
Track history (hours):
 
Tides and Currents Weather Stations Pressure Air Temp Water Temp Dewpoint Dewpoint Depression Visibility Wind Speed Wind Dir Waves Ship Positions

Faust

Last reported at 2016-May-30 23:33 UTC. Time now 2016-May-31 00:14 UTC.
Position N 53°54' E 007°40'.

Length 227.8 m; beam 32.3 m; draft 9.5 m.

Type: Cargo ship. MMSI: 266260000.

Date/timePositionNaut miles runAvg speedWind from/ knotsBaromVisibWave heightAir tempDewpointWater temp
2016-May-30 23:33N 53°54' E 007°40'1010.2
2016-May-30 22:33N 53°54' E 007°23'1110.5
2016-May-30 21:33N 53°51' E 007°05'1212.3
2016-May-30 20:33N 53°49' E 006°45'1312.6
2016-May-30 19:33N 53°45' E 006°24'1211.6
2016-May-30 18:33N 53°42' E 006°06'1111.3
2016-May-30 17:33N 53°38' E 005°47'7 7.2
2016-May-30 16:33N 53°36' E 005°36'1110.5
2016-May-30 15:33N 53°33' E 005°19'1313.3
2016-May-30 14:34N 53°29' E 004°58'1312.9
2016-May-30 13:34N 53°22' E 004°40'1413.5
2016-May-30 12:31N 53°09' E 004°30'1313.5
2016-May-30 11:33N 52°58' E 004°18'1413.7
2016-May-30 10:33N 52°46' E 004°08'1313.5
2016-May-30 09:34N 52°36' E 003°52'1413.7
2016-May-30 08:33N 52°27' E 003°36'1413.9
2016-May-30 07:32N 52°16' E 003°21'1111.2
2016-May-30 06:33N 52°08' E 003°08'1411.9
2016-May-30 05:25N 51°58' E 002°53'1113.0
2016-May-30 04:33N 51°49' E 002°43'1111.5
2016-May-30 03:33N 51°41' E 002°30'1010.0
2016-May-30 02:33N 51°33' E 002°20'10 9.7
2016-May-30 01:33N 51°25' E 002°11'1010.0
2016-May-30 00:33N 51°16' E 002°05'10 9.8
2016-May-29 23:33N 51°10' E 001°53'10 9.9
2016-May-29 22:33N 51°03' E 001°41'1110.5
2016-May-29 21:33N 50°56' E 001°29'1211.5
2016-May-29 20:33N 50°45' E 001°23'1111.3
2016-May-29 19:33N 50°36' E 001°11'3711.9
2016-May-29 16:26N 50°23' E 000°17'1112.5
2016-May-29 15:33N 50°20' E 000°01'1313.2
2016-May-29 14:33N 50°16' W 000°19'1413.8
2016-May-29 13:33N 50°13' W 000°40'1313.1
2016-May-29 12:33N 50°09' W 001°00'1312.8
2016-May-29 11:33N 50°06' W 001°19'5112.7
2016-May-29 07:33N 49°53' W 002°35'1311.9
2016-May-29 06:26N 49°50' W 002°56'1112.2
2016-May-29 05:33N 49°48' W 003°12'1212.0
2016-May-29 04:33N 49°46' W 003°30'1612.2
2016-May-29 03:17N 49°46' W 003°55'2512.5
2016-May-29 01:17N 49°43' W 004°33'912.7
2016-May-29 00:32N 49°43' W 004°48'3013.4
2016-May-28 22:18N 49°40' W 005°33'1013.7
2016-May-28 21:33N 49°39' W 005°49'1413.6
2016-May-28 20:32N 49°38' W 006°11'2713.6
2016-May-28 18:33N 49°38' W 006°52'1414.1
2016-May-28 17:33N 49°39' W 007°14'1613.9
2016-May-28 16:23N 49°40' W 007°39'1113.7
2016-May-28 15:33N 49°40' W 007°57'1413.5
2016-May-28 14:33N 49°40' W 008°18'1413.6
2016-May-28 13:33N 49°40' W 008°39'  
2016-May-21 13:30N 38°39' W 071°23'1414.6
2016-May-21 12:33N 38°48' W 071°36'1514.9
2016-May-21 11:33N 38°58' W 071°50'1514.7
2016-May-21 10:33N 39°08' W 072°03'1515.0
2016-May-21 09:34N 39°19' W 072°18'1414.1
2016-May-21 08:33N 39°28' W 072°31'1313.2
2016-May-21 07:33N 39°37' W 072°44'1312.6
2016-May-21 06:33N 39°46' W 072°55'5 4.6
2016-May-21 05:31N 39°48' W 073°00'9 8.5
2016-May-21 04:28N 39°55' W 073°08'1618.0
2016-May-21 03:33N 40°06' W 073°24'1817.6
2016-May-21 02:33N 40°19' W 073°40'1413.5
2016-May-21 01:34N 40°28' W 073°53'1312.8
2016-May-21 00:33N 40°38' W 074°03'5 4.5
2016-May-20 23:33N 40°41' W 074°08'  

Dump ship's entire track history